Time;durP1;ratioP1;P1;durP2;ratioP2;P2;SDS_P1;SDS_P2;PMS_P1;PMS_P2;Temp;Humidity;BMP_temperature;BMP_pressure;BME280_temperature;BME280_humidity;BME280_pressure;Samples;Min_cycle;Max_cycle;Signal;HPM_P1;HPM_P2
2023/05/16 00:01:00;;;;;;;30.55;11.07;;;;;;;;;;5013460;28;20076;-76
2023/05/16 00:03:26;;;;;;;21.05;10.43;;;;;;;;;;5029115;28;20034;-76
2023/05/16 00:05:53;;;;;;;31.80;9.20;;;;;;;;;;5012277;28;20030;-75
2023/05/16 00:08:19;;;;;;;197.82;41.45;;;;;;;;;;4996112;28;20125;-75
2023/05/16 00:10:45;;;;;;;53.97;15.48;;;;;;;;;;4995800;28;20034;-74
2023/05/16 00:13:12;;;;;;;23.30;8.63;;;;;;;;;;5013460;28;20493;-76
2023/05/16 00:15:38;;;;;;;17.50;8.48;;;;;;;;;;5013213;28;20069;-75
2023/05/16 00:18:05;;;;;;;5.90;4.20;;;;;;;;;;5013048;28;20104;-75
2023/05/16 00:20:31;;;;;;;22.60;10.07;;;;;;;;;;5013129;28;20042;-75
2023/05/16 00:22:59;;;;;;;25.27;9.75;;;;;;;;;;5012950;28;20042;-74
2023/05/16 00:25:26;;;;;;;18.58;8.82;;;;;;;;;;4995734;28;20437;-75
2023/05/16 00:27:52;;;;;;;17.85;9.45;;;;;;;;;;4995399;28;20038;-76
2023/05/16 00:30:18;;;;;;;15.43;7.57;;;;;;;;;;5012022;28;20529;-75
2023/05/16 00:32:44;;;;;;;16.20;8.00;;;;;;;;;;5011467;28;20038;-76
2023/05/16 00:35:11;;;;;;;13.70;8.07;;;;;;;;;;5011830;28;20045;-76
2023/05/16 00:37:37;;;;;;;13.30;8.88;;;;;;;;;;5012688;28;20040;-75
2023/05/16 00:40:03;;;;;;;18.08;9.13;;;;;;;;;;5011789;28;20069;-76
2023/05/16 00:42:30;;;;;;;24.67;8.57;;;;;;;;;;5017601;28;20040;-75
2023/05/16 00:44:57;;;;;;;24.50;8.63;;;;;;;;;;5014472;28;20100;-73
2023/05/16 00:47:23;;;;;;;19.75;8.82;;;;;;;;;;5012749;28;20037;-75
2023/05/16 00:49:49;;;;;;;17.15;8.85;;;;;;;;;;4995060;28;20032;-75
2023/05/16 00:52:15;;;;;;;13.00;7.95;;;;;;;;;;5011302;28;20069;-75
2023/05/16 00:54:41;;;;;;;14.45;8.00;;;;;;;;;;5011231;28;20229;-76
2023/05/16 00:57:07;;;;;;;18.35;8.55;;;;;;;;;;5011118;28;20037;-75
2023/05/16 00:59:33;;;;;;;36.47;9.38;;;;;;;;;;5012567;28;20395;-75
2023/05/16 01:01:59;;;;;;;18.77;9.32;;;;;;;;;;5012352;28;20038;-75
2023/05/16 01:04:25;;;;;;;14.68;8.40;;;;;;;;;;5012650;28;20096;-75
2023/05/16 01:06:54;;;;;;;25.38;8.70;;;;;;;;;;5012326;28;20038;-75
2023/05/16 01:09:20;;;;;;;21.45;8.68;;;;;;;;;;5012696;28;20042;-75
2023/05/16 01:11:51;;;;;;;19.95;10.57;;;;;;;;;;5012004;28;20036;-74
2023/05/16 01:14:37;;;;;;;15.82;8.25;;;;;;;;;;5011202;28;20457;-74
2023/05/16 01:17:12;;;;;;;13.75;8.68;;;;;;;;;;5010661;28;20046;-74
2023/05/16 01:19:43;;;;;;;21.08;8.25;;;;;;;;;;5012068;28;20034;-74
2023/05/16 01:22:31;;;;;;;16.25;8.55;;;;;;;;;;4994618;28;20068;-75
2023/05/16 01:25:10;;;;;;;14.30;7.28;;;;;;;;;;5010925;28;20395;-74
2023/05/16 01:27:36;;;;;;;19.30;7.15;;;;;;;;;;5012003;28;20038;-75
2023/05/16 01:30:12;;;;;;;15.35;8.05;;;;;;;;;;4994556;28;20095;-76
2023/05/16 01:32:38;;;;;;;16.10;7.55;;;;;;;;;;5010459;28;20034;-74
2023/05/16 01:35:04;;;;;;;22.38;7.95;;;;;;;;;;5010833;28;20026;-76
2023/05/16 01:37:32;;;;;;;22.83;8.13;;;;;;;;;;4994121;28;20371;-76
2023/05/16 01:40:08;;;;;;;20.33;7.97;;;;;;;;;;5010815;28;20053;-75
2023/05/16 01:42:36;;;;;;;17.75;7.72;;;;;;;;;;5010614;28;20469;-76
2023/05/16 01:45:08;;;;;;;12.13;7.03;;;;;;;;;;5010429;28;20052;-75
2023/05/16 01:47:36;;;;;;;15.38;8.73;;;;;;;;;;4994784;28;20053;-76
2023/05/16 01:50:18;;;;;;;10.32;5.90;;;;;;;;;;4994201;28;20517;-76
2023/05/16 01:52:45;;;;;;;13.75;6.93;;;;;;;;;;5011287;28;20042;-75
2023/05/16 01:55:14;;;;;;;13.10;7.60;;;;;;;;;;4993948;28;20080;-75
2023/05/16 01:57:39;;;;;;;13.32;5.88;;;;;;;;;;5009884;28;20421;-76
2023/05/16 02:00:07;;;;;;;12.95;5.43;;;;;;;;;;5010337;28;20042;-76
2023/05/16 02:02:40;;;;;;;10.55;6.30;;;;;;;;;;5010024;28;20231;-76
2023/05/16 02:05:08;;;;;;;16.13;7.38;;;;;;;;;;5012737;28;20449;-75
2023/05/16 02:07:35;;;;;;;10.85;5.25;;;;;;;;;;5017736;28;20069;-75
2023/05/16 02:10:01;;;;;;;10.15;5.07;;;;;;;;;;5014196;28;20041;-76
2023/05/16 02:12:28;;;;;;;12.00;5.60;;;;;;;;;;5023512;28;20303;-75
2023/05/16 02:14:54;;;;;;;11.02;5.93;;;;;;;;;;5005283;28;20044;-75
2023/05/16 02:17:21;;;;;;;5.22;4.68;;;;;;;;;;5016193;28;20046;-74
2023/05/16 02:19:47;;;;;;;15.40;5.47;;;;;;;;;;5011198;28;20045;-75
2023/05/16 02:22:13;;;;;;;10.85;5.22;;;;;;;;;;5011113;28;20041;-75
2023/05/16 02:24:39;;;;;;;10.52;5.88;;;;;;;;;;5011093;28;20048;-75
2023/05/16 02:27:05;;;;;;;11.68;6.18;;;;;;;;;;5010565;28;20026;-75
2023/05/16 02:29:31;;;;;;;7.28;4.90;;;;;;;;;;5009769;28;20076;-75
2023/05/16 02:31:57;;;;;;;16.63;6.00;;;;;;;;;;5009425;28;20041;-76
2023/05/16 02:34:23;;;;;;;17.65;7.93;;;;;;;;;;5012965;28;20069;-76
2023/05/16 02:36:50;;;;;;;11.52;5.90;;;;;;;;;;5012859;28;20029;-76
2023/05/16 02:39:15;;;;;;;16.60;6.38;;;;;;;;;;5010771;28;20548;-75
2023/05/16 02:41:41;;;;;;;13.35;8.23;;;;;;;;;;5010538;28;20053;-76
2023/05/16 02:44:07;;;;;;;11.65;6.20;;;;;;;;;;5009479;28;20052;-76
2023/05/16 02:46:35;;;;;;;18.95;8.13;;;;;;;;;;4993081;28;20034;-76
2023/05/16 02:49:03;;;;;;;20.90;8.93;;;;;;;;;;5010405;28;20041;-76
2023/05/16 02:51:29;;;;;;;20.85;9.68;;;;;;;;;;5009395;28;20022;-76
2023/05/16 02:54:00;;;;;;;17.00;8.43;;;;;;;;;;5009381;28;20414;-75
2023/05/16 02:56:27;;;;;;;16.50;8.52;;;;;;;;;;5009219;28;20036;-72
2023/05/16 02:58:53;;;;;;;18.85;8.85;;;;;;;;;;5009979;28;20049;-76
2023/05/16 03:01:19;;;;;;;12.45;7.80;;;;;;;;;;5010240;28;20144;-74
2023/05/16 03:03:46;;;;;;;16.60;7.97;;;;;;;;;;5008410;28;20030;-74
2023/05/16 03:06:12;;;;;;;11.73;7.03;;;;;;;;;;4992964;28;20108;-75
2023/05/16 03:08:38;;;;;;;18.73;8.05;;;;;;;;;;5010377;28;20080;-76
2023/05/16 03:11:05;;;;;;;23.15;8.30;;;;;;;;;;4992564;28;20107;-75
2023/05/16 03:13:31;;;;;;;20.42;8.73;;;;;;;;;;5010219;28;20064;-77
2023/05/16 03:15:59;;;;;;;21.00;10.35;;;;;;;;;;5009078;28;20065;-77
2023/05/16 03:18:25;;;;;;;13.27;8.65;;;;;;;;;;5010070;28;20566;-75
2023/05/16 03:20:55;;;;;;;20.73;8.98;;;;;;;;;;5010199;28;20406;-76
2023/05/16 03:23:23;;;;;;;11.30;5.47;;;;;;;;;;5010124;28;20040;-75
2023/05/16 03:25:49;;;;;;;9.00;6.30;;;;;;;;;;5010177;28;20034;-76
2023/05/16 03:28:19;;;;;;;7.50;6.75;;;;;;;;;;5009165;28;20046;-78
2023/05/16 03:30:45;;;;;;;4.18;3.78;;;;;;;;;;5010238;28;20484;-75
2023/05/16 03:33:12;;;;;;;5.13;4.30;;;;;;;;;;5009164;28;20076;-75
2023/05/16 03:35:38;;;;;;;10.25;4.90;;;;;;;;;;5010568;28;20062;-75
2023/05/16 03:38:04;;;;;;;5.20;4.80;;;;;;;;;;5009896;28;20486;-77
2023/05/16 03:40:30;;;;;;;15.40;4.88;;;;;;;;;;5008825;28;20037;-76
2023/05/16 03:42:56;;;;;;;16.42;5.35;;;;;;;;;;4992133;28;20030;-76
2023/05/16 03:45:22;;;;;;;14.43;6.00;;;;;;;;;;4992797;28;20029;-77
2023/05/16 03:47:48;;;;;;;13.93;4.95;;;;;;;;;;5008599;28;20486;-78
2023/05/16 03:50:15;;;;;;;14.82;4.55;;;;;;;;;;5008937;28;20066;-78
2023/05/16 03:52:41;;;;;;;4.43;3.92;;;;;;;;;;5009888;28;20076;-76
2023/05/16 03:55:08;;;;;;;10.02;4.50;;;;;;;;;;5009608;28;20080;-78
2023/05/16 03:57:35;;;;;;;15.15;4.70;;;;;;;;;;5009702;28;20529;-79
2023/05/16 04:00:05;;;;;;;5.00;4.38;;;;;;;;;;5009893;28;20441;-79
2023/05/16 04:02:41;;;;;;;5.40;3.85;;;;;;;;;;5009997;28;20036;-79
2023/05/16 04:05:08;;;;;;;8.60;4.18;;;;;;;;;;5008591;28;20033;-79
2023/05/16 04:07:35;;;;;;;9.70;4.10;;;;;;;;;;5010189;28;20045;-80
2023/05/16 04:10:02;;;;;;;6.05;4.10;;;;;;;;;;5010153;28;20060;-79
2023/05/16 04:12:31;;;;;;;9.98;4.28;;;;;;;;;;5007430;28;20041;-78
2023/05/16 04:14:57;;;;;;;6.25;4.20;;;;;;;;;;5024774;28;20037;-79
2023/05/16 04:17:23;;;;;;;7.53;5.03;;;;;;;;;;5010644;28;20050;-81
2023/05/16 04:19:49;;;;;;;12.15;4.40;;;;;;;;;;5013549;28;20037;-80
2023/05/16 04:22:15;;;;;;;11.38;3.72;;;;;;;;;;5012413;28;20041;-80
2023/05/16 04:24:41;;;;;;;7.65;4.00;;;;;;;;;;5013861;28;20033;-78
2023/05/16 04:27:08;;;;;;;5.35;4.10;;;;;;;;;;5020342;28;20637;-81
2023/05/16 04:29:34;;;;;;;8.27;3.53;;;;;;;;;;5022490;28;20524;-80
2023/05/16 04:32:01;;;;;;;9.70;3.63;;;;;;;;;;5017197;28;20113;-82
2023/05/16 04:34:27;;;;;;;4.38;2.95;;;;;;;;;;5014672;28;20026;-82
2023/05/16 04:36:54;;;;;;;10.77;3.53;;;;;;;;;;5013809;28;20180;-82
2023/05/16 04:39:20;;;;;;;10.25;3.33;;;;;;;;;;5011693;28;20049;-80
2023/05/16 04:41:46;;;;;;;6.00;3.47;;;;;;;;;;5011922;28;20034;-80
2023/05/16 04:44:13;;;;;;;7.40;3.67;;;;;;;;;;5012882;28;20049;-78
2023/05/16 04:46:40;;;;;;;7.85;3.38;;;;;;;;;;5012712;28;20151;-79
2023/05/16 04:49:07;;;;;;;10.02;3.88;;;;;;;;;;5012788;28;20530;-79
2023/05/16 04:51:33;;;;;;;4.05;3.10;;;;;;;;;;5013129;28;20230;-80
2023/05/16 04:54:00;;;;;;;4.95;2.80;;;;;;;;;;5013056;28;20049;-79
2023/05/16 04:56:26;;;;;;;7.90;2.92;;;;;;;;;;5012102;28;20056;-78
2023/05/16 04:58:53;;;;;;;3.83;2.13;;;;;;;;;;5028159;28;20473;-81
2023/05/16 05:01:20;;;;;;;2.97;2.42;;;;;;;;;;5012605;28;20407;-80
2023/05/16 05:03:46;;;;;;;6.15;2.38;;;;;;;;;;5013058;28;20426;-79
2023/05/16 05:06:12;;;;;;;3.17;2.53;;;;;;;;;;4992878;28;20121;-78
2023/05/16 05:08:38;;;;;;;4.68;2.75;;;;;;;;;;5011612;28;20169;-79
2023/05/16 05:11:04;;;;;;;3.08;2.78;;;;;;;;;;4995701;28;20099;-78
2023/05/16 05:13:30;;;;;;;2.83;2.20;;;;;;;;;;5008066;28;20068;-76
2023/05/16 05:15:56;;;;;;;2.35;2.13;;;;;;;;;;5008288;28;20109;-78
2023/05/16 05:18:22;;;;;;;2.40;2.20;;;;;;;;;;5011961;28;20058;-77
2023/05/16 05:20:49;;;;;;;5.93;2.20;;;;;;;;;;5027397;28;20399;-77
2023/05/16 05:23:15;;;;;;;3.67;2.38;;;;;;;;;;4989509;28;20069;-77
2023/05/16 05:25:41;;;;;;;5.32;4.85;;;;;;;;;;4994243;28;20645;-77
2023/05/16 05:28:07;;;;;;;2.67;2.40;;;;;;;;;;5008904;28;20160;-78
2023/05/16 05:30:33;;;;;;;2.47;2.28;;;;;;;;;;5012023;28;20089;-76
2023/05/16 05:32:59;;;;;;;5.90;2.22;;;;;;;;;;5012504;28;20038;-76
2023/05/16 05:35:25;;;;;;;2.53;2.33;;;;;;;;;;5019121;28;20414;-74
2023/05/16 05:37:51;;;;;;;3.30;1.77;;;;;;;;;;5017878;28;20064;-75
2023/05/16 05:40:17;;;;;;;5.03;2.20;;;;;;;;;;5019997;28;20030;-74
2023/05/16 05:42:43;;;;;;;2.42;2.22;;;;;;;;;;4994393;28;20045;-74
2023/05/16 05:45:09;;;;;;;2.25;2.05;;;;;;;;;;4991696;28;20406;-75
2023/05/16 05:47:35;;;;;;;2.53;2.17;;;;;;;;;;5003784;28;20037;-76
2023/05/16 05:50:01;;;;;;;3.95;2.10;;;;;;;;;;4993519;28;20567;-78
2023/05/16 05:52:28;;;;;;;5.85;1.80;;;;;;;;;;5011006;28;20033;-78
2023/05/16 05:54:54;;;;;;;4.53;2.20;;;;;;;;;;5009185;28;20081;-76
2023/05/16 05:57:20;;;;;;;1.95;1.80;;;;;;;;;;5009651;28;20421;-77
2023/05/16 05:59:47;;;;;;;1.20;1.17;;;;;;;;;;5010843;28;20073;-76
2023/05/16 06:02:13;;;;;;;1.80;1.70;;;;;;;;;;4992488;28;20117;-76
2023/05/16 06:04:41;;;;;;;3.00;1.73;;;;;;;;;;5010511;28;20569;-75
2023/05/16 06:07:07;;;;;;;1.60;1.40;;;;;;;;;;5025267;28;20034;-76
2023/05/16 06:09:33;;;;;;;4.03;1.70;;;;;;;;;;5011048;28;20124;-77
2023/05/16 06:11:59;;;;;;;4.07;1.70;;;;;;;;;;5010222;28;20124;-76
2023/05/16 06:14:26;;;;;;;1.65;1.55;;;;;;;;;;4991395;28;20561;-78
2023/05/16 06:16:51;;;;;;;3.38;1.40;;;;;;;;;;5010120;28;20038;-78
2023/05/16 06:19:17;;;;;;;1.60;1.50;;;;;;;;;;4993945;28;20057;-77
2023/05/16 06:21:44;;;;;;;3.55;1.45;;;;;;;;;;5013431;28;20556;-80
2023/05/16 06:24:11;;;;;;;2.30;1.40;;;;;;;;;;5009937;28;20116;-77
2023/05/16 06:26:37;;;;;;;1.73;1.50;;;;;;;;;;5008880;28;20034;-77
2023/05/16 06:29:03;;;;;;;2.78;1.30;;;;;;;;;;4992714;28;20041;-75
2023/05/16 06:31:30;;;;;;;2.15;1.50;;;;;;;;;;5009295;28;20069;-76
2023/05/16 06:33:56;;;;;;;1.73;1.27;;;;;;;;;;5007249;28;20044;-77
2023/05/16 06:36:22;;;;;;;5.38;1.73;;;;;;;;;;5007236;28;20038;-78
2023/05/16 06:38:48;;;;;;;3.90;1.48;;;;;;;;;;5007618;28;20052;-78
2023/05/16 06:41:15;;;;;;;1.50;1.50;;;;;;;;;;5025275;28;20409;-78
2023/05/16 06:43:41;;;;;;;1.77;1.67;;;;;;;;;;5025341;28;20033;-76
2023/05/16 06:46:07;;;;;;;3.28;1.42;;;;;;;;;;5009612;28;20038;-80
2023/05/16 06:48:33;;;;;;;1.40;1.30;;;;;;;;;;4992335;28;20055;-79
2023/05/16 06:50:59;;;;;;;3.60;1.75;;;;;;;;;;5009792;28;20049;-77
2023/05/16 06:53:25;;;;;;;2.28;1.50;;;;;;;;;;5010051;28;20034;-78
2023/05/16 06:55:51;;;;;;;2.25;1.70;;;;;;;;;;5006026;28;20505;-77
2023/05/16 06:58:17;;;;;;;1.67;1.50;;;;;;;;;;5006994;28;20127;-77
2023/05/16 07:00:43;;;;;;;3.15;2.20;;;;;;;;;;5011140;28;20034;-82
2023/05/16 07:03:10;;;;;;;4.43;1.60;;;;;;;;;;5021130;28;20033;-83
2023/05/16 07:05:36;;;;;;;1.77;1.65;;;;;;;;;;5023911;28;20038;-83
2023/05/16 07:08:01;;;;;;;7.05;1.60;;;;;;;;;;4990278;28;20056;-84
2023/05/16 07:10:28;;;;;;;1.40;1.38;;;;;;;;;;5028761;28;20052;-82
2023/05/16 07:12:57;;;;;;;3.47;1.65;;;;;;;;;;5020443;28;20132;-83
2023/05/16 07:15:22;;;;;;;4.22;2.03;;;;;;;;;;5020855;28;20025;-82
2023/05/16 07:17:49;;;;;;;3.70;1.83;;;;;;;;;;5027806;28;20046;-83
2023/05/16 07:20:16;;;;;;;2.75;1.60;;;;;;;;;;5007125;28;20045;-84
2023/05/16 07:22:41;;;;;;;1.75;1.65;;;;;;;;;;5027377;28;20117;-84
2023/05/16 07:25:11;;;;;;;11.32;1.70;;;;;;;;;;5025975;28;20037;-83
2023/05/16 07:27:40;;;;;;;7.63;1.88;;;;;;;;;;5024170;28;20041;-84
2023/05/16 07:30:12;;;;;;;1.45;1.38;;;;;;;;;;5023990;28;20030;-82
2023/05/16 07:32:39;;;;;;;4.43;1.38;;;;;;;;;;5027969;28;20049;-83
2023/05/16 07:35:05;;;;;;;2.13;1.20;;;;;;;;;;5021176;28;20034;-82
2023/05/16 07:37:31;;;;;;;2.38;1.40;;;;;;;;;;5022809;28;20042;-83
2023/05/16 07:39:58;;;;;;;2.20;1.50;;;;;;;;;;5024343;28;20080;-84
2023/05/16 07:42:24;;;;;;;2.78;1.50;;;;;;;;;;5025214;28;20079;-81
2023/05/16 07:44:50;;;;;;;1.60;1.50;;;;;;;;;;5020842;28;20057;-82
2023/05/16 07:47:16;;;;;;;0.98;0.98;;;;;;;;;;5009299;28;20042;-82
2023/05/16 07:49:42;;;;;;;1.65;1.40;;;;;;;;;;5021364;28;20072;-80
2023/05/16 07:52:08;;;;;;;2.80;1.50;;;;;;;;;;4993343;28;20033;-82
2023/05/16 07:54:34;;;;;;;3.42;1.55;;;;;;;;;;5020432;28;20040;-82
2023/05/16 07:57:01;;;;;;;1.60;1.50;;;;;;;;;;5020271;28;20640;-82
2023/05/16 07:59:27;;;;;;;3.20;1.30;;;;;;;;;;5023899;28;20048;-83
2023/05/16 08:01:54;;;;;;;2.08;1.10;;;;;;;;;;5026915;28;20516;-81
2023/05/16 08:04:20;;;;;;;1.20;1.17;;;;;;;;;;5038226;28;20049;-82
2023/05/16 08:06:46;;;;;;;6.05;1.15;;;;;;;;;;5021883;28;20033;-82
2023/05/16 08:09:12;;;;;;;3.03;1.25;;;;;;;;;;5021759;28;20030;-81
2023/05/16 08:11:38;;;;;;;1.35;1.20;;;;;;;;;;5033075;28;20030;-82
2023/05/16 08:14:05;;;;;;;3.00;1.05;;;;;;;;;;5038702;28;20022;-85
2023/05/16 08:16:31;;;;;;;3.20;1.50;;;;;;;;;;5020715;28;20013;-84
2023/05/16 08:18:57;;;;;;;3.17;1.25;;;;;;;;;;5039109;28;20053;-84
2023/05/16 08:21:23;;;;;;;0.80;0.80;;;;;;;;;;5018661;28;20056;-83
2023/05/16 08:23:49;;;;;;;1.27;1.17;;;;;;;;;;5038437;28;20034;-82
2023/05/16 08:26:16;;;;;;;3.22;1.25;;;;;;;;;;5019277;28;20034;-81
2023/05/16 08:28:42;;;;;;;1.25;1.20;;;;;;;;;;4999827;28;20141;-79
2023/05/16 08:31:08;;;;;;;5.05;1.25;;;;;;;;;;5013224;28;20577;-81
2023/05/16 08:33:34;;;;;;;6.53;1.30;;;;;;;;;;4983364;28;20033;-81
2023/05/16 08:36:00;;;;;;;2.28;1.40;;;;;;;;;;5012446;28;20091;-80
2023/05/16 08:38:27;;;;;;;1.77;1.13;;;;;;;;;;5013885;28;20046;-81
2023/05/16 08:40:53;;;;;;;2.00;1.20;;;;;;;;;;5014212;28;20030;-81
2023/05/16 08:43:19;;;;;;;1.00;1.00;;;;;;;;;;5012394;28;20068;-82
2023/05/16 08:45:45;;;;;;;1.13;1.13;;;;;;;;;;5013550;28;20053;-81
2023/05/16 08:48:36;;;;;;;1.33;1.17;;;;;;;;;;5013467;28;20497;-81
2023/05/16 08:51:02;;;;;;;2.35;1.10;;;;;;;;;;5016807;28;20056;-81
2023/05/16 08:53:32;;;;;;;2.05;0.93;;;;;;;;;;5019244;28;20038;-81
2023/05/16 08:55:58;;;;;;;1.00;0.90;;;;;;;;;;5020320;28;20067;-82
2023/05/16 08:58:24;;;;;;;3.65;1.10;;;;;;;;;;5022197;28;20049;-81
2023/05/16 09:00:51;;;;;;;1.85;1.08;;;;;;;;;;5036278;28;20464;-81
2023/05/16 09:03:19;;;;;;;0.90;0.90;;;;;;;;;;5013621;28;20037;-80
2023/05/16 09:05:45;;;;;;;2.05;1.33;;;;;;;;;;5012353;28;20038;-80
2023/05/16 09:08:11;;;;;;;1.42;1.33;;;;;;;;;;5013522;28;20096;-80
2023/05/16 09:10:38;;;;;;;1.98;1.52;;;;;;;;;;5014149;28;20038;-80
2023/05/16 09:13:04;;;;;;;1.70;1.40;;;;;;;;;;5013614;28;20034;-80
2023/05/16 09:15:31;;;;;;;1.10;0.93;;;;;;;;;;5013060;28;20133;-81
2023/05/16 09:18:13;;;;;;;1.17;1.10;;;;;;;;;;5027648;28;20089;-80
2023/05/16 09:20:45;;;;;;;1.13;1.02;;;;;;;;;;5012894;28;20038;-81
2023/05/16 09:23:11;;;;;;;5.13;1.45;;;;;;;;;;5012343;28;20029;-80
2023/05/16 09:25:38;;;;;;;1.30;1.20;;;;;;;;;;5011263;28;20064;-80
2023/05/16 09:28:04;;;;;;;1.08;1.08;;;;;;;;;;4978315;28;20034;-80
2023/05/16 09:30:34;;;;;;;1.42;1.30;;;;;;;;;;5012484;28;20565;-80
2023/05/16 09:33:02;;;;;;;2.35;1.13;;;;;;;;;;5010951;28;20041;-81
2023/05/16 09:35:28;;;;;;;2.75;1.02;;;;;;;;;;5012379;28;20478;-80
2023/05/16 09:37:57;;;;;;;1.23;1.23;;;;;;;;;;5012242;28;20029;-80
2023/05/16 09:40:23;;;;;;;3.15;1.38;;;;;;;;;;4994805;28;20124;-79
2023/05/16 09:43:07;;;;;;;1.20;1.20;;;;;;;;;;5014041;28;20068;-81
2023/05/16 09:45:34;;;;;;;1.95;1.33;;;;;;;;;;5013601;28;20037;-81
2023/05/16 09:48:11;;;;;;;3.70;1.20;;;;;;;;;;5012711;28;20726;-80
2023/05/16 09:50:37;;;;;;;1.30;1.20;;;;;;;;;;4995302;28;20133;-80
2023/05/16 09:53:03;;;;;;;0.70;0.70;;;;;;;;;;5012709;28;20052;-81
2023/05/16 09:55:30;;;;;;;3.92;1.10;;;;;;;;;;5013631;28;20045;-82
2023/05/16 09:57:56;;;;;;;1.80;1.00;;;;;;;;;;5013006;28;20501;-81
2023/05/16 10:00:22;;;;;;;1.08;1.00;;;;;;;;;;5013043;28;20092;-81
2023/05/16 10:02:48;;;;;;;6.53;1.52;;;;;;;;;;5022246;28;20505;-81
2023/05/16 10:05:16;;;;;;;1.77;1.33;;;;;;;;;;4997399;28;20061;-81
2023/05/16 10:07:42;;;;;;;1.77;1.27;;;;;;;;;;5010923;28;20038;-80
2023/05/16 10:10:08;;;;;;;1.38;1.20;;;;;;;;;;5012713;28;20061;-81
2023/05/16 10:12:35;;;;;;;1.30;1.20;;;;;;;;;;5012371;28;20046;-81
2023/05/16 10:15:01;;;;;;;3.78;1.63;;;;;;;;;;4993948;28;20546;-80
2023/05/16 10:17:35;;;;;;;2.38;1.90;;;;;;;;;;5011182;28;20061;-80
2023/05/16 10:20:04;;;;;;;2.65;2.45;;;;;;;;;;5032259;28;20084;-80
2023/05/16 10:22:32;;;;;;;1.98;1.70;;;;;;;;;;4984315;28;20030;-81
2023/05/16 10:25:00;;;;;;;2.05;1.45;;;;;;;;;;5013369;28;20069;-80
2023/05/16 10:27:26;;;;;;;1.15;1.05;;;;;;;;;;4995579;28;20699;-80
2023/05/16 10:29:52;;;;;;;3.00;1.50;;;;;;;;;;5014627;28;20030;-80
2023/05/16 10:32:18;;;;;;;4.22;2.08;;;;;;;;;;5013656;28;20037;-81
2023/05/16 10:34:45;;;;;;;2.80;2.60;;;;;;;;;;5011965;28;20034;-79
2023/05/16 10:37:11;;;;;;;3.50;2.00;;;;;;;;;;5010822;28;20064;-81
2023/05/16 10:39:37;;;;;;;5.03;1.17;;;;;;;;;;5011548;28;20042;-80
2023/05/16 10:42:03;;;;;;;16.10;7.28;;;;;;;;;;5015686;28;20044;-80
2023/05/16 10:44:30;;;;;;;1.80;1.25;;;;;;;;;;5015347;28;20044;-82
2023/05/16 10:46:57;;;;;;;2.22;1.63;;;;;;;;;;5012836;28;20522;-82
2023/05/16 10:49:24;;;;;;;9.30;4.53;;;;;;;;;;4995381;28;20041;-81
2023/05/16 10:52:08;;;;;;;1.17;0.98;;;;;;;;;;5016133;28;20038;-83
2023/05/16 10:54:35;;;;;;;2.92;2.15;;;;;;;;;;4998888;28;20502;-83
2023/05/16 10:57:14;;;;;;;33.97;12.00;;;;;;;;;;5012606;28;20037;-82
2023/05/16 10:59:40;;;;;;;4.25;2.45;;;;;;;;;;5016974;28;20032;-82
2023/05/16 11:02:20;;;;;;;3.70;2.70;;;;;;;;;;5013027;28;20034;-82
2023/05/16 11:04:50;;;;;;;6.25;2.08;;;;;;;;;;5013264;28;20139;-81
2023/05/16 11:07:17;;;;;;;6.30;1.95;;;;;;;;;;5014633;28;20353;-83
2023/05/16 11:09:43;;;;;;;1.35;1.35;;;;;;;;;;5013110;28;20132;-81
2023/05/16 11:12:11;;;;;;;8.00;4.35;;;;;;;;;;4995793;28;20070;-80
2023/05/16 11:14:37;;;;;;;4.05;3.20;;;;;;;;;;5013341;28;20037;-81
2023/05/16 11:17:08;;;;;;;2.22;2.03;;;;;;;;;;5012317;28;20421;-80
2023/05/16 11:19:41;;;;;;;5.38;1.48;;;;;;;;;;5011423;28;20140;-82
2023/05/16 11:22:07;;;;;;;1.23;1.23;;;;;;;;;;5010452;28;20034;-81
2023/05/16 11:24:34;;;;;;;2.65;1.17;;;;;;;;;;5010949;28;20041;-81
2023/05/16 11:27:00;;;;;;;1.63;1.20;;;;;;;;;;5014470;28;20066;-82
2023/05/16 11:29:35;;;;;;;2.67;1.05;;;;;;;;;;5016116;28;20080;-83
2023/05/16 11:32:01;;;;;;;1.15;1.08;;;;;;;;;;5018514;28;20129;-84
2023/05/16 11:34:27;;;;;;;1.80;1.67;;;;;;;;;;4999395;28;20025;-81
2023/05/16 11:36:54;;;;;;;1.65;1.30;;;;;;;;;;5015272;28;20041;-81
2023/05/16 11:39:23;;;;;;;2.15;1.20;;;;;;;;;;4981407;28;20053;-81
2023/05/16 11:41:50;;;;;;;1.20;1.20;;;;;;;;;;4997811;28;20096;-82
2023/05/16 11:44:16;;;;;;;1.40;1.00;;;;;;;;;;5013011;28;20562;-82
2023/05/16 11:46:42;;;;;;;2.10;1.00;;;;;;;;;;5014110;28;20036;-81
2023/05/16 11:49:08;;;;;;;0.93;0.93;;;;;;;;;;5014211;28;20396;-81
2023/05/16 11:51:37;;;;;;;1.98;1.17;;;;;;;;;;5000539;28;20033;-82
2023/05/16 11:54:03;;;;;;;1.10;1.00;;;;;;;;;;4992264;28;20418;-80
2023/05/16 11:56:31;;;;;;;3.30;1.38;;;;;;;;;;5015380;28;20113;-81
2023/05/16 11:58:58;;;;;;;1.17;1.17;;;;;;;;;;5014669;28;20046;-81
2023/05/16 12:01:24;;;;;;;1.50;1.25;;;;;;;;;;5022395;28;20045;-80
2023/05/16 12:03:55;;;;;;;1.02;1.02;;;;;;;;;;5029225;28;20045;-83
2023/05/16 12:06:21;;;;;;;4.78;1.30;;;;;;;;;;5024534;28;20524;-81
2023/05/16 12:08:50;;;;;;;1.95;1.85;;;;;;;;;;5015176;28;20041;-81
2023/05/16 12:11:16;;;;;;;1.15;1.13;;;;;;;;;;5016489;28;20033;-81
2023/05/16 12:13:43;;;;;;;1.08;1.08;;;;;;;;;;5016934;28;20038;-82
2023/05/16 12:16:10;;;;;;;3.67;1.40;;;;;;;;;;4997562;28;20030;-81
2023/05/16 12:18:37;;;;;;;1.27;1.17;;;;;;;;;;5013998;28;20156;-81
2023/05/16 12:21:04;;;;;;;1.02;1.02;;;;;;;;;;5015498;28;20477;-80
2023/05/16 12:23:31;;;;;;;2.08;1.42;;;;;;;;;;4997608;28;20048;-82
2023/05/16 12:26:00;;;;;;;2.42;1.30;;;;;;;;;;5015017;28;20125;-81
2023/05/16 12:28:33;;;;;;;1.25;1.20;;;;;;;;;;5015284;28;20593;-81
2023/05/16 12:30:59;;;;;;;2.33;1.02;;;;;;;;;;5016076;28;20137;-81
2023/05/16 12:33:26;;;;;;;1.48;1.20;;;;;;;;;;5013871;28;20073;-82
2023/05/16 12:35:53;;;;;;;3.05;1.58;;;;;;;;;;5017955;28;20034;-79
2023/05/16 12:38:19;;;;;;;1.05;1.05;;;;;;;;;;5022708;28;20049;-86
2023/05/16 12:40:45;;;;;;;1.10;1.10;;;;;;;;;;5020558;28;20030;-81
2023/05/16 12:43:15;;;;;;;1.20;1.20;;;;;;;;;;5031245;28;20037;-83
2023/05/16 12:45:42;;;;;;;2.72;1.60;;;;;;;;;;5013371;28;20560;-82
2023/05/16 12:48:12;;;;;;;1.15;1.10;;;;;;;;;;5014589;28;20064;-82
2023/05/16 12:50:39;;;;;;;3.08;1.10;;;;;;;;;;5019107;28;20057;-81
2023/05/16 12:53:05;;;;;;;1.10;1.10;;;;;;;;;;5013711;28;20552;-80
2023/05/16 12:55:31;;;;;;;1.27;1.20;;;;;;;;;;5011961;28;20034;-80
2023/05/16 12:57:59;;;;;;;1.45;1.35;;;;;;;;;;5014262;28;20042;-82
2023/05/16 13:00:25;;;;;;;4.28;1.45;;;;;;;;;;5013516;28;20044;-81
2023/05/16 13:02:51;;;;;;;1.00;1.00;;;;;;;;;;5012017;28;20042;-81
2023/05/16 13:05:19;;;;;;;1.00;1.00;;;;;;;;;;4995302;28;20034;-81
2023/05/16 13:07:45;;;;;;;2.35;1.38;;;;;;;;;;5013376;28;20057;-79
2023/05/16 13:10:11;;;;;;;3.78;1.42;;;;;;;;;;5012626;28;20502;-80
2023/05/16 13:12:38;;;;;;;2.85;1.00;;;;;;;;;;5014684;28;20049;-82
2023/05/16 13:15:06;;;;;;;0.90;0.90;;;;;;;;;;4996075;28;20075;-80
2023/05/16 13:17:41;;;;;;;1.05;1.05;;;;;;;;;;5013932;28;20113;-80
2023/05/16 13:20:07;;;;;;;3.03;1.20;;;;;;;;;;5027555;28;20078;-78
2023/05/16 13:22:34;;;;;;;2.47;1.73;;;;;;;;;;5012081;28;20060;-80
2023/05/16 13:25:12;;;;;;;2.03;1.73;;;;;;;;;;5010415;28;20540;-79
2023/05/16 13:27:38;;;;;;;1.25;1.15;;;;;;;;;;5011859;28;20624;-79
2023/05/16 13:30:04;;;;;;;0.80;0.80;;;;;;;;;;4996738;28;20107;-80
2023/05/16 13:32:41;;;;;;;4.07;1.30;;;;;;;;;;5013602;28;20514;-82
2023/05/16 13:35:21;;;;;;;1.20;1.15;;;;;;;;;;5010553;28;20104;-79
2023/05/16 13:37:47;;;;;;;3.17;1.40;;;;;;;;;;4978666;28;20053;-81
2023/05/16 13:40:12;;;;;;;4.05;1.20;;;;;;;;;;4996383;28;20033;-82
2023/05/16 13:42:38;;;;;;;1.52;1.40;;;;;;;;;;5021356;28;20084;-80
2023/05/16 13:45:05;;;;;;;1.40;1.40;;;;;;;;;;5011952;28;20065;-79
2023/05/16 13:48:13;;;;;;;1.73;1.63;;;;;;;;;;5011761;28;20497;-80
2023/05/16 13:50:39;;;;;;;0.80;0.80;;;;;;;;;;5011506;28;20034;-79
2023/05/16 13:53:05;;;;;;;0.88;0.88;;;;;;;;;;4994672;28;20030;-81
2023/05/16 13:55:31;;;;;;;1.33;1.25;;;;;;;;;;4977188;28;20041;-80
2023/05/16 13:58:01;;;;;;;4.05;1.30;;;;;;;;;;5011578;28;20103;-80
2023/05/16 14:00:30;;;;;;;1.60;1.50;;;;;;;;;;5005605;28;20132;-79
2023/05/16 14:02:56;;;;;;;1.83;1.67;;;;;;;;;;5012251;28;20111;-80
2023/05/16 14:05:51;;;;;;;1.02;1.02;;;;;;;;;;4995003;28;20041;-80
2023/05/16 14:08:18;;;;;;;2.97;2.30;;;;;;;;;;5028812;28;20121;-80
2023/05/16 14:10:52;;;;;;;2.42;2.22;;;;;;;;;;5013097;28;20201;-80
2023/05/16 14:13:23;;;;;;;1.67;1.58;;;;;;;;;;5014593;28;20041;-79
2023/05/16 14:15:50;;;;;;;5.72;1.55;;;;;;;;;;4995458;28;20077;-79
2023/05/16 14:18:16;;;;;;;3.33;1.77;;;;;;;;;;4994565;28;20136;-79
2023/05/16 14:20:45;;;;;;;1.30;1.30;;;;;;;;;;4995297;28;20140;-80
2023/05/16 14:23:11;;;;;;;1.63;1.52;;;;;;;;;;4979289;28;20081;-79
2023/05/16 14:25:37;;;;;;;1.55;1.45;;;;;;;;;;5028171;28;20044;-79
2023/05/16 14:28:03;;;;;;;1.52;1.27;;;;;;;;;;5012206;28;20033;-80
2023/05/16 14:30:30;;;;;;;3.80;1.45;;;;;;;;;;5009893;28;20044;-80
2023/05/16 14:32:57;;;;;;;2.33;1.52;;;;;;;;;;5011151;28;20033;-80
2023/05/16 14:35:24;;;;;;;4.22;1.67;;;;;;;;;;5010001;28;20061;-80
2023/05/16 14:37:50;;;;;;;3.50;1.50;;;;;;;;;;5011612;28;20038;-80
2023/05/16 14:40:16;;;;;;;1.92;1.50;;;;;;;;;;5012260;28;20045;-80